sensor_id;sensor_type;location;lat;lon;timestamp;P1;durP1;ratioP1;P2;durP2;ratioP2
38113;SDS011;23926;53.222;6.354;2024-01-30T00:00:04;46.72;;;43.65;;
38113;SDS011;23926;53.222;6.354;2024-01-30T00:02:31;43.10;;;40.38;;
38113;SDS011;23926;53.222;6.354;2024-01-30T00:04:57;44.42;;;41.53;;
38113;SDS011;23926;53.222;6.354;2024-01-30T00:07:22;50.15;;;47.22;;
38113;SDS011;23926;53.222;6.354;2024-01-30T00:09:47;48.47;;;44.92;;
38113;SDS011;23926;53.222;6.354;2024-01-30T00:12:13;49.13;;;46.17;;
38113;SDS011;23926;53.222;6.354;2024-01-30T00:14:40;51.60;;;48.53;;
38113;SDS011;23926;53.222;6.354;2024-01-30T00:17:06;45.47;;;42.80;;
38113;SDS011;23926;53.222;6.354;2024-01-30T00:19:32;44.40;;;41.05;;
38113;SDS011;23926;53.222;6.354;2024-01-30T00:21:57;43.40;;;40.55;;
38113;SDS011;23926;53.222;6.354;2024-01-30T00:24:23;36.50;;;34.33;;
38113;SDS011;23926;53.222;6.354;2024-01-30T00:26:48;36.28;;;33.90;;
38113;SDS011;23926;53.222;6.354;2024-01-30T00:29:13;37.67;;;35.20;;
38113;SDS011;23926;53.222;6.354;2024-01-30T00:31:44;40.97;;;38.17;;
38113;SDS011;23926;53.222;6.354;2024-01-30T00:34:10;41.67;;;38.90;;
38113;SDS011;23926;53.222;6.354;2024-01-30T00:36:35;35.58;;;33.63;;
38113;SDS011;23926;53.222;6.354;2024-01-30T00:39:00;33.88;;;31.48;;
38113;SDS011;23926;53.222;6.354;2024-01-30T00:41:26;31.60;;;29.48;;
38113;SDS011;23926;53.222;6.354;2024-01-30T00:43:51;29.60;;;27.73;;
38113;SDS011;23926;53.222;6.354;2024-01-30T00:46:17;36.92;;;34.47;;
38113;SDS011;23926;53.222;6.354;2024-01-30T00:48:42;34.08;;;31.70;;
38113;SDS011;23926;53.222;6.354;2024-01-30T00:51:08;44.35;;;41.53;;
38113;SDS011;23926;53.222;6.354;2024-01-30T00:53:33;46.03;;;43.17;;
38113;SDS011;23926;53.222;6.354;2024-01-30T00:55:58;50.50;;;47.58;;
38113;SDS011;23926;53.222;6.354;2024-01-30T00:58:24;49.63;;;46.60;;
38113;SDS011;23926;53.222;6.354;2024-01-30T01:00:49;61.03;;;57.60;;
38113;SDS011;23926;53.222;6.354;2024-01-30T01:03:15;55.38;;;52.42;;
38113;SDS011;23926;53.222;6.354;2024-01-30T01:05:40;54.85;;;51.65;;
38113;SDS011;23926;53.222;6.354;2024-01-30T01:08:06;56.00;;;52.88;;
38113;SDS011;23926;53.222;6.354;2024-01-30T01:10:31;53.90;;;50.80;;
38113;SDS011;23926;53.222;6.354;2024-01-30T01:12:57;40.15;;;37.67;;
38113;SDS011;23926;53.222;6.354;2024-01-30T01:15:22;45.97;;;43.10;;
38113;SDS011;23926;53.222;6.354;2024-01-30T01:17:47;44.60;;;41.88;;
38113;SDS011;23926;53.222;6.354;2024-01-30T01:20:13;53.45;;;50.22;;
38113;SDS011;23926;53.222;6.354;2024-01-30T01:22:38;58.97;;;55.58;;
38113;SDS011;23926;53.222;6.354;2024-01-30T01:25:04;55.58;;;52.35;;
38113;SDS011;23926;53.222;6.354;2024-01-30T01:27:32;54.65;;;51.50;;
38113;SDS011;23926;53.222;6.354;2024-01-30T01:29:58;52.65;;;49.40;;
38113;SDS011;23926;53.222;6.354;2024-01-30T01:32:23;54.35;;;51.08;;
38113;SDS011;23926;53.222;6.354;2024-01-30T01:34:48;59.58;;;55.85;;
38113;SDS011;23926;53.222;6.354;2024-01-30T01:37:14;54.85;;;51.75;;
38113;SDS011;23926;53.222;6.354;2024-01-30T01:39:39;51.10;;;47.95;;
38113;SDS011;23926;53.222;6.354;2024-01-30T01:42:04;46.95;;;44.03;;
38113;SDS011;23926;53.222;6.354;2024-01-30T01:44:30;45.10;;;42.22;;
38113;SDS011;23926;53.222;6.354;2024-01-30T01:46:55;44.15;;;40.78;;
38113;SDS011;23926;53.222;6.354;2024-01-30T01:49:25;44.85;;;42.22;;
38113;SDS011;23926;53.222;6.354;2024-01-30T01:51:53;43.13;;;40.22;;
38113;SDS011;23926;53.222;6.354;2024-01-30T01:54:21;46.88;;;43.78;;
38113;SDS011;23926;53.222;6.354;2024-01-30T01:56:48;46.00;;;43.17;;
38113;SDS011;23926;53.222;6.354;2024-01-30T01:59:13;45.33;;;42.38;;
38113;SDS011;23926;53.222;6.354;2024-01-30T02:01:39;45.47;;;42.15;;
38113;SDS011;23926;53.222;6.354;2024-01-30T02:04:08;45.33;;;42.42;;
38113;SDS011;23926;53.222;6.354;2024-01-30T02:06:36;44.38;;;41.67;;
38113;SDS011;23926;53.222;6.354;2024-01-30T02:09:02;49.58;;;46.45;;
38113;SDS011;23926;53.222;6.354;2024-01-30T02:11:29;49.88;;;46.25;;
38113;SDS011;23926;53.222;6.354;2024-01-30T02:13:55;53.10;;;49.78;;
38113;SDS011;23926;53.222;6.354;2024-01-30T02:16:20;52.13;;;49.00;;
38113;SDS011;23926;53.222;6.354;2024-01-30T02:18:46;50.92;;;47.45;;
38113;SDS011;23926;53.222;6.354;2024-01-30T02:21:12;47.70;;;44.03;;
38113;SDS011;23926;53.222;6.354;2024-01-30T02:23:41;45.55;;;42.83;;
38113;SDS011;23926;53.222;6.354;2024-01-30T02:26:09;55.50;;;51.90;;
38113;SDS011;23926;53.222;6.354;2024-01-30T02:28:34;58.55;;;55.13;;
38113;SDS011;23926;53.222;6.354;2024-01-30T02:31:00;55.92;;;52.72;;
38113;SDS011;23926;53.222;6.354;2024-01-30T02:33:25;62.55;;;58.72;;
38113;SDS011;23926;53.222;6.354;2024-01-30T02:35:50;57.42;;;54.05;;
38113;SDS011;23926;53.222;6.354;2024-01-30T02:38:16;56.08;;;52.75;;
38113;SDS011;23926;53.222;6.354;2024-01-30T02:40:41;45.40;;;42.55;;
38113;SDS011;23926;53.222;6.354;2024-01-30T02:43:07;39.10;;;36.67;;
38113;SDS011;23926;53.222;6.354;2024-01-30T02:45:32;32.60;;;30.25;;
38113;SDS011;23926;53.222;6.354;2024-01-30T02:47:58;33.40;;;30.67;;
38113;SDS011;23926;53.222;6.354;2024-01-30T02:50:23;34.05;;;31.52;;
38113;SDS011;23926;53.222;6.354;2024-01-30T02:52:49;33.65;;;31.52;;
38113;SDS011;23926;53.222;6.354;2024-01-30T02:55:14;38.40;;;35.83;;
38113;SDS011;23926;53.222;6.354;2024-01-30T02:57:42;41.38;;;37.97;;
38113;SDS011;23926;53.222;6.354;2024-01-30T03:00:07;46.83;;;43.88;;
38113;SDS011;23926;53.222;6.354;2024-01-30T03:02:34;49.58;;;46.25;;
38113;SDS011;23926;53.222;6.354;2024-01-30T03:05:00;45.85;;;42.60;;
38113;SDS011;23926;53.222;6.354;2024-01-30T03:07:25;47.58;;;44.40;;
38113;SDS011;23926;53.222;6.354;2024-01-30T03:09:51;47.28;;;44.50;;
38113;SDS011;23926;53.222;6.354;2024-01-30T03:12:16;49.60;;;46.35;;
38113;SDS011;23926;53.222;6.354;2024-01-30T03:14:42;44.08;;;41.03;;
38113;SDS011;23926;53.222;6.354;2024-01-30T03:17:07;40.65;;;37.65;;
38113;SDS011;23926;53.222;6.354;2024-01-30T03:19:33;42.42;;;39.67;;
38113;SDS011;23926;53.222;6.354;2024-01-30T03:21:58;45.15;;;42.05;;
38113;SDS011;23926;53.222;6.354;2024-01-30T03:24:24;36.92;;;33.83;;
38113;SDS011;23926;53.222;6.354;2024-01-30T03:26:49;30.13;;;28.02;;
38113;SDS011;23926;53.222;6.354;2024-01-30T03:29:14;34.60;;;32.20;;
38113;SDS011;23926;53.222;6.354;2024-01-30T03:31:40;31.80;;;29.50;;
38113;SDS011;23926;53.222;6.354;2024-01-30T03:34:06;27.95;;;25.75;;
38113;SDS011;23926;53.222;6.354;2024-01-30T03:36:31;29.13;;;26.80;;
38113;SDS011;23926;53.222;6.354;2024-01-30T03:38:58;30.08;;;27.67;;
38113;SDS011;23926;53.222;6.354;2024-01-30T03:41:24;32.30;;;30.17;;
38113;SDS011;23926;53.222;6.354;2024-01-30T03:43:50;37.20;;;34.22;;
38113;SDS011;23926;53.222;6.354;2024-01-30T03:46:15;46.42;;;43.15;;
38113;SDS011;23926;53.222;6.354;2024-01-30T03:48:41;52.72;;;48.33;;
38113;SDS011;23926;53.222;6.354;2024-01-30T03:51:06;71.22;;;66.53;;
38113;SDS011;23926;53.222;6.354;2024-01-30T03:53:31;72.53;;;68.22;;
38113;SDS011;23926;53.222;6.354;2024-01-30T03:55:57;73.00;;;68.50;;
38113;SDS011;23926;53.222;6.354;2024-01-30T03:58:22;79.07;;;74.28;;
38113;SDS011;23926;53.222;6.354;2024-01-30T04:00:48;81.15;;;76.38;;
38113;SDS011;23926;53.222;6.354;2024-01-30T04:03:16;58.90;;;54.50;;
38113;SDS011;23926;53.222;6.354;2024-01-30T04:05:42;59.15;;;54.55;;
38113;SDS011;23926;53.222;6.354;2024-01-30T04:08:07;40.42;;;37.75;;
38113;SDS011;23926;53.222;6.354;2024-01-30T04:10:33;44.70;;;41.92;;
38113;SDS011;23926;53.222;6.354;2024-01-30T04:12:59;46.28;;;43.38;;
38113;SDS011;23926;53.222;6.354;2024-01-30T04:15:25;46.03;;;43.30;;
38113;SDS011;23926;53.222;6.354;2024-01-30T04:17:50;41.83;;;38.83;;
38113;SDS011;23926;53.222;6.354;2024-01-30T04:20:16;39.83;;;37.25;;
38113;SDS011;23926;53.222;6.354;2024-01-30T04:22:44;36.72;;;34.22;;
38113;SDS011;23926;53.222;6.354;2024-01-30T04:25:11;32.50;;;30.10;;
38113;SDS011;23926;53.222;6.354;2024-01-30T04:27:40;35.13;;;32.30;;
38113;SDS011;23926;53.222;6.354;2024-01-30T04:30:05;33.22;;;30.83;;
38113;SDS011;23926;53.222;6.354;2024-01-30T04:32:31;26.65;;;24.63;;
38113;SDS011;23926;53.222;6.354;2024-01-30T04:34:57;25.00;;;22.45;;
38113;SDS011;23926;53.222;6.354;2024-01-30T04:37:23;23.58;;;21.55;;
38113;SDS011;23926;53.222;6.354;2024-01-30T04:39:49;21.55;;;20.05;;
38113;SDS011;23926;53.222;6.354;2024-01-30T04:42:14;24.10;;;22.40;;
38113;SDS011;23926;53.222;6.354;2024-01-30T04:44:39;23.45;;;21.75;;
38113;SDS011;23926;53.222;6.354;2024-01-30T04:47:05;27.50;;;25.50;;
38113;SDS011;23926;53.222;6.354;2024-01-30T04:49:33;29.20;;;26.73;;
38113;SDS011;23926;53.222;6.354;2024-01-30T04:51:58;27.83;;;25.75;;
38113;SDS011;23926;53.222;6.354;2024-01-30T04:54:24;26.85;;;24.80;;
38113;SDS011;23926;53.222;6.354;2024-01-30T04:56:49;25.52;;;23.35;;
38113;SDS011;23926;53.222;6.354;2024-01-30T04:59:14;28.13;;;26.13;;
38113;SDS011;23926;53.222;6.354;2024-01-30T05:01:40;27.40;;;25.10;;
38113;SDS011;23926;53.222;6.354;2024-01-30T05:04:08;26.23;;;24.38;;
38113;SDS011;23926;53.222;6.354;2024-01-30T05:06:34;28.83;;;26.73;;
38113;SDS011;23926;53.222;6.354;2024-01-30T05:08:59;26.63;;;24.88;;
38113;SDS011;23926;53.222;6.354;2024-01-30T05:11:24;26.00;;;23.90;;
38113;SDS011;23926;53.222;6.354;2024-01-30T05:13:50;31.48;;;29.17;;
38113;SDS011;23926;53.222;6.354;2024-01-30T05:16:15;38.97;;;36.38;;
38113;SDS011;23926;53.222;6.354;2024-01-30T05:18:40;26.45;;;24.52;;
38113;SDS011;23926;53.222;6.354;2024-01-30T05:21:06;23.73;;;20.83;;
38113;SDS011;23926;53.222;6.354;2024-01-30T05:23:31;36.67;;;34.20;;
38113;SDS011;23926;53.222;6.354;2024-01-30T05:25:57;28.73;;;26.58;;
38113;SDS011;23926;53.222;6.354;2024-01-30T05:28:22;23.83;;;21.83;;
38113;SDS011;23926;53.222;6.354;2024-01-30T05:30:47;20.92;;;19.23;;
38113;SDS011;23926;53.222;6.354;2024-01-30T05:33:13;25.48;;;23.55;;
38113;SDS011;23926;53.222;6.354;2024-01-30T05:35:38;35.47;;;33.15;;
38113;SDS011;23926;53.222;6.354;2024-01-30T05:38:04;30.25;;;28.13;;
38113;SDS011;23926;53.222;6.354;2024-01-30T05:40:29;27.58;;;25.38;;
38113;SDS011;23926;53.222;6.354;2024-01-30T05:42:55;18.95;;;17.45;;
38113;SDS011;23926;53.222;6.354;2024-01-30T05:45:23;17.63;;;16.23;;
38113;SDS011;23926;53.222;6.354;2024-01-30T05:47:48;17.48;;;15.77;;
38113;SDS011;23926;53.222;6.354;2024-01-30T05:50:14;15.25;;;13.98;;
38113;SDS011;23926;53.222;6.354;2024-01-30T05:52:39;19.20;;;17.58;;
38113;SDS011;23926;53.222;6.354;2024-01-30T05:55:05;17.15;;;15.50;;
38113;SDS011;23926;53.222;6.354;2024-01-30T05:57:30;18.00;;;16.10;;
38113;SDS011;23926;53.222;6.354;2024-01-30T05:59:56;14.85;;;13.77;;
38113;SDS011;23926;53.222;6.354;2024-01-30T06:02:21;18.58;;;16.85;;
38113;SDS011;23926;53.222;6.354;2024-01-30T06:04:47;16.65;;;15.20;;
38113;SDS011;23926;53.222;6.354;2024-01-30T06:07:12;16.63;;;15.25;;
38113;SDS011;23926;53.222;6.354;2024-01-30T06:09:37;15.02;;;13.75;;
38113;SDS011;23926;53.222;6.354;2024-01-30T06:12:03;16.85;;;15.38;;
38113;SDS011;23926;53.222;6.354;2024-01-30T06:14:30;14.85;;;13.50;;
38113;SDS011;23926;53.222;6.354;2024-01-30T06:16:56;15.88;;;14.45;;
38113;SDS011;23926;53.222;6.354;2024-01-30T06:19:21;22.67;;;20.95;;
38113;SDS011;23926;53.222;6.354;2024-01-30T06:21:46;18.30;;;16.42;;
38113;SDS011;23926;53.222;6.354;2024-01-30T06:24:12;17.55;;;15.95;;
38113;SDS011;23926;53.222;6.354;2024-01-30T06:26:37;24.58;;;22.70;;
38113;SDS011;23926;53.222;6.354;2024-01-30T06:29:02;20.70;;;18.90;;
38113;SDS011;23926;53.222;6.354;2024-01-30T06:31:28;35.08;;;32.55;;
38113;SDS011;23926;53.222;6.354;2024-01-30T06:33:53;35.38;;;32.85;;
38113;SDS011;23926;53.222;6.354;2024-01-30T06:36:19;56.30;;;52.75;;
38113;SDS011;23926;53.222;6.354;2024-01-30T06:38:44;54.13;;;50.72;;
38113;SDS011;23926;53.222;6.354;2024-01-30T06:41:10;34.15;;;31.88;;
38113;SDS011;23926;53.222;6.354;2024-01-30T06:43:35;28.05;;;25.88;;
38113;SDS011;23926;53.222;6.354;2024-01-30T06:46:01;30.52;;;28.50;;
38113;SDS011;23926;53.222;6.354;2024-01-30T06:48:26;28.95;;;26.48;;
38113;SDS011;23926;53.222;6.354;2024-01-30T06:50:55;50.17;;;46.63;;
38113;SDS011;23926;53.222;6.354;2024-01-30T06:53:22;33.67;;;31.05;;
38113;SDS011;23926;53.222;6.354;2024-01-30T06:55:47;26.60;;;24.63;;
38113;SDS011;23926;53.222;6.354;2024-01-30T06:58:12;18.20;;;16.67;;
38113;SDS011;23926;53.222;6.354;2024-01-30T07:00:38;22.15;;;20.05;;
38113;SDS011;23926;53.222;6.354;2024-01-30T07:03:03;15.35;;;13.85;;
38113;SDS011;23926;53.222;6.354;2024-01-30T07:05:29;15.13;;;13.85;;
38113;SDS011;23926;53.222;6.354;2024-01-30T07:07:54;14.68;;;12.73;;
38113;SDS011;23926;53.222;6.354;2024-01-30T07:10:19;13.80;;;12.57;;
38113;SDS011;23926;53.222;6.354;2024-01-30T07:12:45;14.60;;;13.18;;
38113;SDS011;23926;53.222;6.354;2024-01-30T07:15:10;19.95;;;18.58;;
38113;SDS011;23926;53.222;6.354;2024-01-30T07:17:36;20.02;;;18.33;;
38113;SDS011;23926;53.222;6.354;2024-01-30T07:20:02;19.90;;;17.98;;
38113;SDS011;23926;53.222;6.354;2024-01-30T07:22:28;14.43;;;13.18;;
38113;SDS011;23926;53.222;6.354;2024-01-30T07:24:55;18.23;;;16.83;;
38113;SDS011;23926;53.222;6.354;2024-01-30T07:27:20;12.82;;;11.40;;
38113;SDS011;23926;53.222;6.354;2024-01-30T07:29:46;12.02;;;10.82;;
38113;SDS011;23926;53.222;6.354;2024-01-30T07:32:12;14.10;;;11.90;;
38113;SDS011;23926;53.222;6.354;2024-01-30T07:34:37;13.15;;;12.10;;
38113;SDS011;23926;53.222;6.354;2024-01-30T07:37:03;25.00;;;22.98;;
38113;SDS011;23926;53.222;6.354;2024-01-30T07:39:28;19.33;;;17.77;;
38113;SDS011;23926;53.222;6.354;2024-01-30T07:41:53;29.08;;;26.58;;
38113;SDS011;23926;53.222;6.354;2024-01-30T07:44:20;55.38;;;51.85;;
38113;SDS011;23926;53.222;6.354;2024-01-30T07:46:45;25.55;;;23.30;;
38113;SDS011;23926;53.222;6.354;2024-01-30T07:49:11;19.90;;;18.27;;
38113;SDS011;23926;53.222;6.354;2024-01-30T07:51:36;13.77;;;12.05;;
38113;SDS011;23926;53.222;6.354;2024-01-30T07:54:02;27.48;;;25.25;;
38113;SDS011;23926;53.222;6.354;2024-01-30T07:56:27;20.23;;;18.58;;
38113;SDS011;23926;53.222;6.354;2024-01-30T07:58:53;16.38;;;14.98;;
38113;SDS011;23926;53.222;6.354;2024-01-30T08:01:18;17.48;;;15.82;;
38113;SDS011;23926;53.222;6.354;2024-01-30T08:03:43;11.43;;;10.27;;
38113;SDS011;23926;53.222;6.354;2024-01-30T08:06:09;32.47;;;30.10;;
38113;SDS011;23926;53.222;6.354;2024-01-30T08:08:35;28.65;;;26.67;;
38113;SDS011;23926;53.222;6.354;2024-01-30T08:11:00;11.93;;;10.82;;
38113;SDS011;23926;53.222;6.354;2024-01-30T08:13:25;11.50;;;8.52;;
38113;SDS011;23926;53.222;6.354;2024-01-30T08:15:51;13.20;;;9.48;;
38113;SDS011;23926;53.222;6.354;2024-01-30T08:18:16;10.82;;;9.70;;
38113;SDS011;23926;53.222;6.354;2024-01-30T08:20:41;13.32;;;11.98;;
38113;SDS011;23926;53.222;6.354;2024-01-30T08:23:07;13.68;;;12.20;;
38113;SDS011;23926;53.222;6.354;2024-01-30T08:25:32;11.93;;;10.90;;
38113;SDS011;23926;53.222;6.354;2024-01-30T08:27:58;12.48;;;11.48;;
38113;SDS011;23926;53.222;6.354;2024-01-30T08:30:23;55.85;;;52.33;;
38113;SDS011;23926;53.222;6.354;2024-01-30T08:32:49;43.15;;;40.30;;
38113;SDS011;23926;53.222;6.354;2024-01-30T08:35:14;14.60;;;13.30;;
38113;SDS011;23926;53.222;6.354;2024-01-30T08:37:41;11.95;;;10.82;;
38113;SDS011;23926;53.222;6.354;2024-01-30T08:40:06;11.15;;;10.07;;
38113;SDS011;23926;53.222;6.354;2024-01-30T08:42:33;13.90;;;12.68;;
38113;SDS011;23926;53.222;6.354;2024-01-30T08:44:58;23.60;;;21.88;;
38113;SDS011;23926;53.222;6.354;2024-01-30T08:47:24;18.55;;;17.15;;
38113;SDS011;23926;53.222;6.354;2024-01-30T08:49:51;31.15;;;29.25;;
38113;SDS011;23926;53.222;6.354;2024-01-30T08:52:17;60.03;;;56.70;;
38113;SDS011;23926;53.222;6.354;2024-01-30T08:54:42;77.15;;;72.57;;
38113;SDS011;23926;53.222;6.354;2024-01-30T08:57:08;59.13;;;55.15;;
38113;SDS011;23926;53.222;6.354;2024-01-30T08:59:33;26.92;;;25.02;;
38113;SDS011;23926;53.222;6.354;2024-01-30T09:01:59;114.22;;;105.95;;
38113;SDS011;23926;53.222;6.354;2024-01-30T09:04:24;98.35;;;91.88;;
38113;SDS011;23926;53.222;6.354;2024-01-30T09:06:50;102.10;;;95.43;;
38113;SDS011;23926;53.222;6.354;2024-01-30T09:09:16;82.15;;;77.03;;
38113;SDS011;23926;53.222;6.354;2024-01-30T09:11:42;20.38;;;18.98;;
38113;SDS011;23926;53.222;6.354;2024-01-30T09:14:08;10.27;;;9.48;;
38113;SDS011;23926;53.222;6.354;2024-01-30T09:16:33;14.40;;;13.10;;
38113;SDS011;23926;53.222;6.354;2024-01-30T09:18:59;17.52;;;16.02;;
38113;SDS011;23926;53.222;6.354;2024-01-30T09:21:24;8.38;;;7.60;;
38113;SDS011;23926;53.222;6.354;2024-01-30T09:23:50;15.77;;;14.63;;
38113;SDS011;23926;53.222;6.354;2024-01-30T09:26:15;13.55;;;12.23;;
38113;SDS011;23926;53.222;6.354;2024-01-30T09:28:40;8.50;;;7.22;;
38113;SDS011;23926;53.222;6.354;2024-01-30T09:31:10;9.95;;;9.15;;
38113;SDS011;23926;53.222;6.354;2024-01-30T09:33:37;12.57;;;9.82;;
38113;SDS011;23926;53.222;6.354;2024-01-30T09:36:03;10.68;;;9.57;;
38113;SDS011;23926;53.222;6.354;2024-01-30T09:38:28;10.85;;;7.80;;
38113;SDS011;23926;53.222;6.354;2024-01-30T09:40:54;24.05;;;21.88;;
38113;SDS011;23926;53.222;6.354;2024-01-30T09:43:23;17.17;;;15.65;;
38113;SDS011;23926;53.222;6.354;2024-01-30T09:45:49;30.33;;;27.65;;
38113;SDS011;23926;53.222;6.354;2024-01-30T09:48:15;22.73;;;20.88;;
38113;SDS011;23926;53.222;6.354;2024-01-30T09:50:41;9.85;;;8.95;;
38113;SDS011;23926;53.222;6.354;2024-01-30T09:53:07;10.23;;;9.23;;
38113;SDS011;23926;53.222;6.354;2024-01-30T09:55:33;18.02;;;16.48;;
38113;SDS011;23926;53.222;6.354;2024-01-30T09:58:00;79.10;;;74.65;;
38113;SDS011;23926;53.222;6.354;2024-01-30T10:00:26;84.38;;;79.07;;
38113;SDS011;23926;53.222;6.354;2024-01-30T10:02:52;24.80;;;22.98;;
38113;SDS011;23926;53.222;6.354;2024-01-30T10:05:18;31.25;;;29.05;;
38113;SDS011;23926;53.222;6.354;2024-01-30T10:07:54;20.13;;;18.20;;
38113;SDS011;23926;53.222;6.354;2024-01-30T10:10:23;52.90;;;50.03;;
38113;SDS011;23926;53.222;6.354;2024-01-30T10:12:49;12.30;;;11.30;;
38113;SDS011;23926;53.222;6.354;2024-01-30T10:15:14;9.57;;;7.93;;
38113;SDS011;23926;53.222;6.354;2024-01-30T10:17:40;19.85;;;16.17;;
38113;SDS011;23926;53.222;6.354;2024-01-30T10:20:05;21.67;;;19.98;;
38113;SDS011;23926;53.222;6.354;2024-01-30T10:22:32;48.85;;;45.63;;
38113;SDS011;23926;53.222;6.354;2024-01-30T10:24:58;48.83;;;46.05;;
38113;SDS011;23926;53.222;6.354;2024-01-30T10:27:28;73.55;;;69.30;;
38113;SDS011;23926;53.222;6.354;2024-01-30T10:29:54;85.30;;;79.65;;
38113;SDS011;23926;53.222;6.354;2024-01-30T10:32:20;46.42;;;42.97;;
38113;SDS011;23926;53.222;6.354;2024-01-30T10:34:46;45.17;;;42.15;;
38113;SDS011;23926;53.222;6.354;2024-01-30T10:37:12;40.28;;;37.50;;
38113;SDS011;23926;53.222;6.354;2024-01-30T10:39:40;79.20;;;72.53;;
38113;SDS011;23926;53.222;6.354;2024-01-30T10:42:10;40.75;;;38.20;;
38113;SDS011;23926;53.222;6.354;2024-01-30T10:47:30;44.80;;;41.47;;
38113;SDS011;23926;53.222;6.354;2024-01-30T10:49:56;63.22;;;58.60;;
38113;SDS011;23926;53.222;6.354;2024-01-30T10:52:25;71.45;;;66.10;;
38113;SDS011;23926;53.222;6.354;2024-01-30T10:54:51;59.50;;;55.58;;
38113;SDS011;23926;53.222;6.354;2024-01-30T10:57:17;56.97;;;53.28;;
38113;SDS011;23926;53.222;6.354;2024-01-30T10:59:43;51.67;;;48.42;;
38113;SDS011;23926;53.222;6.354;2024-01-30T11:02:09;59.55;;;55.42;;
38113;SDS011;23926;53.222;6.354;2024-01-30T11:04:36;54.60;;;50.65;;
38113;SDS011;23926;53.222;6.354;2024-01-30T11:07:02;47.83;;;44.38;;
38113;SDS011;23926;53.222;6.354;2024-01-30T11:09:29;36.47;;;34.10;;
38113;SDS011;23926;53.222;6.354;2024-01-30T11:11:58;37.00;;;34.63;;
38113;SDS011;23926;53.222;6.354;2024-01-30T11:14:28;39.17;;;36.25;;
38113;SDS011;23926;53.222;6.354;2024-01-30T11:16:58;28.00;;;25.80;;
38113;SDS011;23926;53.222;6.354;2024-01-30T11:19:25;28.70;;;26.92;;
38113;SDS011;23926;53.222;6.354;2024-01-30T11:21:52;27.80;;;26.20;;
38113;SDS011;23926;53.222;6.354;2024-01-30T11:24:19;38.50;;;35.20;;
38113;SDS011;23926;53.222;6.354;2024-01-30T11:26:47;34.03;;;31.70;;
38113;SDS011;23926;53.222;6.354;2024-01-30T11:29:14;39.65;;;37.00;;
38113;SDS011;23926;53.222;6.354;2024-01-30T11:31:51;19.27;;;18.17;;
38113;SDS011;23926;53.222;6.354;2024-01-30T11:34:17;44.58;;;41.78;;
38113;SDS011;23926;53.222;6.354;2024-01-30T11:36:44;40.20;;;37.25;;
38113;SDS011;23926;53.222;6.354;2024-01-30T11:39:14;35.92;;;33.80;;
38113;SDS011;23926;53.222;6.354;2024-01-30T11:41:42;15.70;;;14.55;;
38113;SDS011;23926;53.222;6.354;2024-01-30T11:44:08;27.00;;;25.42;;
38113;SDS011;23926;53.222;6.354;2024-01-30T11:46:34;18.13;;;17.05;;
38113;SDS011;23926;53.222;6.354;2024-01-30T11:49:00;32.05;;;30.02;;
38113;SDS011;23926;53.222;6.354;2024-01-30T11:51:25;20.02;;;18.67;;
38113;SDS011;23926;53.222;6.354;2024-01-30T11:53:50;20.40;;;18.80;;
38113;SDS011;23926;53.222;6.354;2024-01-30T11:56:16;24.25;;;22.90;;
38113;SDS011;23926;53.222;6.354;2024-01-30T11:58:42;26.55;;;24.92;;
38113;SDS011;23926;53.222;6.354;2024-01-30T12:01:08;14.18;;;13.25;;
38113;SDS011;23926;53.222;6.354;2024-01-30T12:03:35;16.65;;;15.35;;
38113;SDS011;23926;53.222;6.354;2024-01-30T12:06:00;14.73;;;13.82;;
38113;SDS011;23926;53.222;6.354;2024-01-30T12:08:28;15.45;;;14.43;;
38113;SDS011;23926;53.222;6.354;2024-01-30T12:10:59;11.25;;;10.55;;
38113;SDS011;23926;53.222;6.354;2024-01-30T12:13:27;30.77;;;29.10;;
38113;SDS011;23926;53.222;6.354;2024-01-30T12:15:53;41.55;;;38.92;;
38113;SDS011;23926;53.222;6.354;2024-01-30T12:18:19;22.23;;;20.98;;
38113;SDS011;23926;53.222;6.354;2024-01-30T12:20:45;40.60;;;38.47;;
38113;SDS011;23926;53.222;6.354;2024-01-30T12:23:11;26.00;;;24.65;;
38113;SDS011;23926;53.222;6.354;2024-01-30T12:25:37;20.77;;;19.58;;
38113;SDS011;23926;53.222;6.354;2024-01-30T12:28:03;12.57;;;11.43;;
38113;SDS011;23926;53.222;6.354;2024-01-30T12:30:29;13.52;;;12.88;;
38113;SDS011;23926;53.222;6.354;2024-01-30T12:32:55;13.07;;;12.32;;
38113;SDS011;23926;53.222;6.354;2024-01-30T12:35:20;8.73;;;8.32;;
38113;SDS011;23926;53.222;6.354;2024-01-30T12:37:46;9.43;;;8.73;;
38113;SDS011;23926;53.222;6.354;2024-01-30T12:40:13;7.57;;;5.68;;
38113;SDS011;23926;53.222;6.354;2024-01-30T12:42:40;16.40;;;15.45;;
38113;SDS011;23926;53.222;6.354;2024-01-30T12:45:11;23.73;;;22.52;;
38113;SDS011;23926;53.222;6.354;2024-01-30T12:47:36;17.48;;;16.60;;
38113;SDS011;23926;53.222;6.354;2024-01-30T12:50:01;21.70;;;20.65;;
38113;SDS011;23926;53.222;6.354;2024-01-30T12:52:28;16.63;;;15.63;;
38113;SDS011;23926;53.222;6.354;2024-01-30T12:54:54;11.82;;;11.07;;
38113;SDS011;23926;53.222;6.354;2024-01-30T12:57:20;14.85;;;13.95;;
38113;SDS011;23926;53.222;6.354;2024-01-30T12:59:45;11.10;;;10.50;;
38113;SDS011;23926;53.222;6.354;2024-01-30T13:02:14;17.02;;;16.15;;
38113;SDS011;23926;53.222;6.354;2024-01-30T13:04:40;12.00;;;10.88;;
38113;SDS011;23926;53.222;6.354;2024-01-30T13:07:05;15.77;;;14.98;;
38113;SDS011;23926;53.222;6.354;2024-01-30T13:09:31;8.32;;;5.30;;
38113;SDS011;23926;53.222;6.354;2024-01-30T13:11:57;5.88;;;5.38;;
38113;SDS011;23926;53.222;6.354;2024-01-30T13:14:23;4.93;;;4.63;;
38113;SDS011;23926;53.222;6.354;2024-01-30T13:16:49;14.95;;;14.15;;
38113;SDS011;23926;53.222;6.354;2024-01-30T13:19:14;20.90;;;19.90;;
38113;SDS011;23926;53.222;6.354;2024-01-30T13:21:40;12.18;;;11.57;;
38113;SDS011;23926;53.222;6.354;2024-01-30T13:24:05;16.02;;;15.15;;
38113;SDS011;23926;53.222;6.354;2024-01-30T13:26:34;22.60;;;21.33;;
38113;SDS011;23926;53.222;6.354;2024-01-30T13:28:59;32.65;;;31.00;;
38113;SDS011;23926;53.222;6.354;2024-01-30T13:31:24;14.52;;;13.77;;
38113;SDS011;23926;53.222;6.354;2024-01-30T13:33:50;42.97;;;40.45;;
38113;SDS011;23926;53.222;6.354;2024-01-30T13:36:15;47.78;;;44.75;;
38113;SDS011;23926;53.222;6.354;2024-01-30T13:38:41;52.70;;;49.17;;
38113;SDS011;23926;53.222;6.354;2024-01-30T13:41:06;62.38;;;57.92;;
38113;SDS011;23926;53.222;6.354;2024-01-30T13:43:32;59.17;;;55.20;;
38113;SDS011;23926;53.222;6.354;2024-01-30T13:45:57;56.38;;;52.45;;
38113;SDS011;23926;53.222;6.354;2024-01-30T13:48:24;43.92;;;41.38;;
38113;SDS011;23926;53.222;6.354;2024-01-30T13:50:49;59.80;;;55.88;;
38113;SDS011;23926;53.222;6.354;2024-01-30T13:53:15;63.90;;;59.33;;
38113;SDS011;23926;53.222;6.354;2024-01-30T13:55:40;88.97;;;81.93;;
38113;SDS011;23926;53.222;6.354;2024-01-30T13:58:06;75.18;;;69.53;;
38113;SDS011;23926;53.222;6.354;2024-01-30T14:00:32;65.40;;;60.60;;
38113;SDS011;23926;53.222;6.354;2024-01-30T14:02:58;76.57;;;71.22;;
38113;SDS011;23926;53.222;6.354;2024-01-30T14:05:24;72.78;;;67.80;;
38113;SDS011;23926;53.222;6.354;2024-01-30T14:07:51;87.72;;;80.68;;
38113;SDS011;23926;53.222;6.354;2024-01-30T14:10:17;67.47;;;62.45;;
38113;SDS011;23926;53.222;6.354;2024-01-30T14:12:42;64.32;;;59.58;;
38113;SDS011;23926;53.222;6.354;2024-01-30T14:15:09;77.68;;;71.57;;
38113;SDS011;23926;53.222;6.354;2024-01-30T14:17:43;72.72;;;66.97;;